• Join FlightAware (Why Join?)
  • Login
  • US Flag 
12:00PM EDT


 

Airport Tracker/Info


-or-


 

Live Flight TrackerFlight Track Log ✈ UAL495 ✈ 22-Apr-2013 ✈ KLAX - KDEN

Flight Track Log - Related Links

Times and Time Zones

All times are in EDT time to prevent confusion due to time zone crossing. See the UAL495 flight status page for this flight to view local times or setup timezone preferences in your user account.

Time Position Orientation Groundspeed Altitude Reporting Facility
EDT Latitude Longitude Course Direction KTS MPH feet Rate Location/Type
08:51AM 33.9347 -118.4436 90° East 193 222 1,700  Level Los Angeles Center
08:52AM 33.8917 -118.4919 223° Southwest 227 261 4,500 2,760 Climbing Los Angeles Center
08:53AM 33.7637 -118.6183 132° Southeast  Level FlightAware Approximate
08:53AM 33.8158 -118.5053 188° South 271 312 7,300  Level Los Angeles Center
08:54AM 33.6816 -118.5063 101° East  Level FlightAware Approximate
08:54AM 33.7369 -118.5161 187° South 291 335 10,200  Level Los Angeles Center
08:55AM 33.6453 -118.3631 116° Southeast  Level FlightAware Approximate
08:55AM 33.6667 -118.4625 148° Southeast 339 390 12,300  Level Los Angeles Center
08:56AM 33.6333 -118.2157 90° East  Level FlightAware Approximate
08:56AM 33.6492 -118.3492 100° East 353 406 14,800  Level Los Angeles Center
08:57AM 33.6431 -118.2269 93° East 375 432 16,900 1,980 Climbing Los Angeles Center
08:58AM 33.7003 -118.1231 56° Northeast 401 461 18,900 2,280 Climbing Los Angeles Center
08:59AM 33.8111 -118.0314 34° Northeast 409 471 21,500 2,340 Climbing Los Angeles Center
09:00AM 33.9039 -117.9464 37° Northeast 420 483 23,700 1,920 Climbing Los Angeles Center
09:01AM 33.9997 -117.8589 37° Northeast 430 495 25,400 1,680 Climbing Los Angeles Center
09:02AM 34.0972 -117.7678 38° Northeast 440 506 27,200 1,500 Climbing Los Angeles Center
09:03AM 34.1825 -117.6522 48° Northeast 462 532 28,500 1,320 Climbing Los Angeles Center
09:04AM 34.2736 -117.5378 46° Northeast 469 540 29,900 1,560 Climbing Los Angeles Center
09:05AM 34.3656 -117.4206 46° Northeast 476 548 31,700 1,740 Climbing Los Angeles Center
09:06AM 34.4586 -117.2994 47° Northeast 473 544 33,500 1,680 Climbing Los Angeles Center
09:07AM 34.5469 -117.1853 47° Northeast 469 540 35,200 1,440 Climbing Los Angeles Center
09:08AM 34.6347 -117.0728 47° Northeast 465 535 36,500 840 Climbing Los Angeles Center
09:09AM 34.7211 -116.9606 47° Northeast 458 527 37,000 240 Climbing Los Angeles Center
09:10AM 34.8072 -116.8486 47° Northeast 457 526 37,000  Level Los Angeles Center
09:11AM 34.8939 -116.7350 47° Northeast 460 529 37,000  Level Los Angeles Center
09:12AM 34.9831 -116.6200 47° Northeast 467 537 37,000  Level Los Angeles Center
09:13AM 35.0714 -116.5025 47° Northeast 471 542 37,000  Level Los Angeles Center
09:14AM 35.1603 -116.3864 47° Northeast 470 541 37,000  Level Los Angeles Center
09:15AM 35.2489 -116.2700 47° Northeast 469 540 37,000  Level Los Angeles Center
09:16AM 35.3358 -116.1550 47° Northeast 464 534 37,000  Level Los Angeles Center
09:17AM 35.4222 -116.0397 47° Northeast 462 532 37,000  Level Los Angeles Center
09:18AM 35.5108 -115.9253 46° Northeast 463 533 37,000  Level Los Angeles Center
09:19AM 35.6069 -115.7964 47° Northeast 462 532 37,000  Level Los Angeles Center
09:20AM 35.6914 -115.6817 48° Northeast 456 525 37,000  Level Los Angeles Center
09:21AM 35.7786 -115.5672 47° Northeast 458 527 37,000  Level Los Angeles Center
09:22AM 35.8642 -115.4514 48° Northeast 459 528 37,000  Level Los Angeles Center
09:23AM 35.9658 -115.3131 48° Northeast 458 527 37,000  Level Los Angeles Center
09:24AM 36.0497 -115.1978 48° Northeast 453 521 37,000  Level Los Angeles Center
09:25AM 36.1114 -115.0594 61° Northeast 466 536 37,000  Level Los Angeles Center
09:26AM 36.1558 -114.9094 70° East 468 539 37,000  Level Los Angeles Center
09:27AM 36.2008 -114.7592 70° East 469 540 37,000  Level Los Angeles Center
09:28AM 36.2478 -114.6086 69° East 471 542 37,000  Level Los Angeles Center
09:29AM 36.2933 -114.4597 69° East 466 536 37,000  Level Los Angeles Center
09:30AM 36.3389 -114.3094 69° East 466 536 37,000  Level Los Angeles Center
09:31AM 36.3844 -114.1586 69° East 466 536 37,000  Level Los Angeles Center
09:32AM 36.4375 -114.0119 66° East 467 537 37,000  Level Los Angeles Center
09:33AM 36.4892 -113.8644 66° East 466 536 37,000  Level Los Angeles Center
09:34AM 36.5400 -113.7128 67° East 464 534 37,000  Level Los Angeles Center
09:35AM 36.5914 -113.5628 67° East 471 542 37,000  Level Los Angeles Center
09:36AM 36.6514 -113.3850 67° East 468 539 37,000  Level Los Angeles Center
09:37AM 36.7025 -113.2367 67° East 468 539 37,000  Level Los Angeles Center
09:38AM 36.7531 -113.0872 67° East 471 542 37,000  Level Los Angeles Center
09:39AM 36.8042 -112.9386 67° East 470 541 37,000  Level Los Angeles Center
09:40AM 36.8550 -112.7892 67° East 470 541 37,000  Level Los Angeles Center
09:41AM 36.9056 -112.6386 67° East 472 543 37,000  Level Los Angeles Center
09:42AM 36.9553 -112.4881 68° East 472 543 37,000  Level Los Angeles Center
09:43AM 37.0056 -112.3383 67° East 471 542 37,000  Level Los Angeles Center
09:45AM 37.0644 -112.1564 68° East 474 545 37,000  Level Los Angeles Center
09:45AM 37.0967 -112.0664 66° East 473 544 37,000  Level Denver Center
09:46AM 37.1472 -111.9133 67° East 477 549 37,000  Level Denver Center
09:47AM 37.1653 -111.8544 69° East 474 545 37,000  Level Los Angeles Center
09:47AM 37.1969 -111.7617 67° East 476 548 37,000  Level Denver Center
09:48AM 37.2425 -111.6106 69° East 467 537 37,000  Level Denver Center
09:49AM 37.2933 -111.4578 67° East 475 547 37,000  Level Denver Center
09:50AM 37.3417 -111.3036 68° East 475 547 37,000  Level Denver Center
09:51AM 37.3917 -111.1497 68° East 478 550 37,000  Level Denver Center
09:52AM 37.4397 -110.9961 68° East 475 547 37,000  Level Denver Center
09:53AM 37.4886 -110.8417 68° East 477 549 37,000  Level Denver Center
09:54AM 37.5475 -110.6542 68° East 481 554 37,000  Level Denver Center
09:55AM 37.5914 -110.5117 69° East 478 550 37,000  Level Denver Center
09:56AM 37.6456 -110.3383 68° East 473 544 37,000  Level Denver Center
09:57AM 37.6917 -110.1903 68° East 474 545 37,000  Level Denver Center
09:58AM 37.7367 -110.0411 69° East 475 547 37,000  Level Denver Center
09:59AM 37.7906 -109.8675 69° East 475 547 37,000  Level Denver Center
10:00AM 37.8358 -109.7164 69° East 478 550 37,000  Level Denver Center
10:01AM 37.8811 -109.5644 69° East 480 552 37,000  Level Denver Center
10:02AM 37.9339 -109.3881 69° East 480 552 37,000  Level Denver Center
10:03AM 37.9786 -109.2378 69° East 477 549 37,000  Level Denver Center
10:04AM 38.0236 -109.0850 69° East 481 554 37,000  Level Denver Center
10:05AM 38.0722 -108.9211 69° East 479 551 37,000  Level Denver Center
10:06AM 38.1225 -108.7439 70° East 478 550 37,000  Level Denver Center
10:08AM 38.1669 -108.5942 69° East 475 547 37,000  Level Denver Center
10:09AM 38.2178 -108.4167 70° East 477 549 37,000  Level Denver Center
10:10AM 38.2619 -108.2619 70° East 483 556 37,000  Level Denver Center
10:11AM 38.3064 -108.1083 70° East 485 558 37,000  Level Denver Center
10:12AM 38.3581 -107.9267 70° East 489 563 37,000  Level Denver Center
10:13AM 38.4200 -107.7847 61° Northeast 477 549 37,000  Level Denver Center
10:14AM 38.4922 -107.6172 61° Northeast 483 556 37,000  Level Denver Center
10:15AM 38.5550 -107.4717 61° Northeast 488 562 37,000  Level Denver Center
10:16AM 38.6181 -107.3294 60° Northeast 483 556 37,000 -120 Level Denver Center
10:17AM 38.6900 -107.1597 61° Northeast 487 560 36,800 -600 Descending Denver Center
10:18AM 38.7558 -107.0053 61° Northeast 493 567 35,800 -1,080 Descending Denver Center
10:19AM 38.8192 -106.8553 62° Northeast 483 556 34,700 -1,440 Descending Denver Center
10:20AM 38.8847 -106.7031 61° Northeast 474 545 32,900 -1,680 Descending Denver Center
10:21AM 38.9422 -106.5667 62° Northeast 458 527 31,300 -1,680 Descending Denver Center
10:22AM 39.0092 -106.4108 61° Northeast 448 516 29,500 -1,620 Descending Denver Center
10:23AM 39.0628 -106.2814 62° Northeast 434 499 28,000 -1,620 Descending Denver Center
10:24AM 39.1264 -106.1303 61° Northeast 432 497 26,300 -1,620 Descending Denver Center
10:25AM 39.1825 -105.9939 62° Northeast 429 494 24,700 -1,620 Descending Denver Center
10:26AM 39.2386 -105.8597 62° Northeast 421 484 23,000 -1,620 Descending Denver Center
10:27AM 39.2925 -105.7281 62° Northeast 413 475 21,400 -1,620 Descending Denver Center
10:28AM 39.3450 -105.6000 62° Northeast 404 465 19,800 -1,740 Descending Denver Center
10:29AM 39.3967 -105.4636 64° Northeast 394 453 17,900 -1,680 Descending Denver Center
10:30AM 39.4019 -105.3261 87° East 377 434 16,400 -1,560 Descending Denver Center
10:31AM 39.4072 -105.1922 87° East 350 403 14,800 -1,440 Descending Denver Center
10:32AM 39.4125 -105.0714 87° East 338 389 13,500 -900 Descending Denver Center
10:33AM 39.4186 -104.9506 86° East 314 361 13,000 -660 Descending Denver Center
10:34AM 39.4308 -104.8561 80° East 268 308 12,200 -1,140 Descending Denver Center
10:35AM 39.4864 -104.8022 37° Northeast 247 284 10,700 -1,440 Descending Denver Center
10:36AM 39.5492 -104.7494 33° Northeast 250 288 9,300 -1,080 Descending Denver Center
10:37AM 39.6017 -104.6986 37° Northeast 239 275 8,600 -540 Descending Denver Center
10:38AM 39.6600 -104.6625 25° Northeast 214 246 8,300 -540 Descending Denver Center
10:39AM 39.7164 -104.6619 360° North 193 222 7,600 -840 Descending Denver Center
10:40AM 39.7717 -104.6614 360° North 182 209 6,600 -1,020 Descending Denver Center